createdAt,value
2022-12-31T00:00:16.679Z,0.00
2022-12-31T00:01:17.006Z,0.00
2022-12-31T00:02:16.745Z,0.00
2022-12-31T00:03:17.053Z,0.00
2022-12-31T00:04:16.600Z,0.00
2022-12-31T00:05:16.928Z,0.00
2022-12-31T00:06:16.627Z,0.00
2022-12-31T00:07:16.807Z,0.00
2022-12-31T00:08:16.576Z,0.00
2022-12-31T00:09:17.411Z,0.00
2022-12-31T00:10:16.565Z,0.00
2022-12-31T00:11:16.656Z,0.00
2022-12-31T00:12:16.611Z,0.00
2022-12-31T00:13:16.723Z,0.00
2022-12-31T00:14:16.523Z,0.00
2022-12-31T00:15:16.627Z,0.00
2022-12-31T00:16:16.427Z,0.00
2022-12-31T00:17:16.754Z,0.00
2022-12-31T00:18:16.427Z,0.00
2022-12-31T00:19:16.551Z,0.00
2022-12-31T00:20:16.374Z,0.00
2022-12-31T00:21:16.912Z,0.00
2022-12-31T00:22:16.370Z,0.00
2022-12-31T00:23:16.662Z,0.00
2022-12-31T00:24:16.368Z,0.00
2022-12-31T00:25:16.988Z,0.00
2022-12-31T00:26:16.345Z,0.00
2022-12-31T00:27:17.682Z,0.00
2022-12-31T00:28:17.298Z,0.00
2022-12-31T00:29:16.567Z,0.00
2022-12-31T00:30:16.253Z,0.00
2022-12-31T00:31:18.211Z,0.00
2022-12-31T00:32:16.313Z,0.00
2022-12-31T00:33:16.777Z,0.00
2022-12-31T00:34:16.173Z,0.00
2022-12-31T00:35:16.627Z,0.00
2022-12-31T00:36:16.144Z,0.00
2022-12-31T00:37:18.649Z,0.00
2022-12-31T00:38:16.884Z,0.00
2022-12-31T00:39:16.891Z,0.00
2022-12-31T00:40:16.192Z,0.00
2022-12-31T00:41:16.332Z,0.00
2022-12-31T00:42:16.069Z,0.00
2022-12-31T00:43:17.757Z,0.00
2022-12-31T00:44:16.106Z,0.00
2022-12-31T00:45:16.977Z,0.00
2022-12-31T00:46:16.050Z,0.00
2022-12-31T00:47:16.334Z,0.00
2022-12-31T00:48:16.019Z,0.00
2022-12-31T00:49:16.169Z,0.00
2022-12-31T00:50:16.121Z,0.00
2022-12-31T00:51:17.102Z,0.00
2022-12-31T00:52:15.980Z,0.00
2022-12-31T00:53:16.957Z,0.00
2022-12-31T00:54:15.905Z,0.00
2022-12-31T00:55:16.424Z,0.00
2022-12-31T00:56:16.825Z,0.00
2022-12-31T00:57:19.029Z,0.00
2022-12-31T00:58:15.845Z,0.00
2022-12-31T00:59:16.080Z,0.00
2022-12-31T01:00:15.862Z,0.00
2022-12-31T01:01:16.220Z,0.00
2022-12-31T01:02:16.069Z,0.00
2022-12-31T01:03:16.420Z,0.00
2022-12-31T01:04:15.766Z,0.00
2022-12-31T01:05:17.138Z,0.00
2022-12-31T01:06:15.859Z,0.00
2022-12-31T01:07:17.357Z,0.00
2022-12-31T01:08:15.978Z,0.00
2022-12-31T01:09:16.533Z,0.00
2022-12-31T01:10:15.683Z,0.00
2022-12-31T01:11:16.624Z,0.00
2022-12-31T01:12:15.702Z,0.00
2022-12-31T01:13:16.038Z,0.00
2022-12-31T01:14:15.615Z,0.00
2022-12-31T01:15:15.983Z,0.00
2022-12-31T01:16:15.723Z,0.00
2022-12-31T01:17:15.868Z,0.00
2022-12-31T01:18:15.538Z,0.00
2022-12-31T01:19:16.910Z,0.00
2022-12-31T01:20:15.531Z,0.00
2022-12-31T01:21:15.973Z,0.00
2022-12-31T01:22:16.211Z,0.00
2022-12-31T01:23:16.167Z,0.00
2022-12-31T01:24:15.465Z,0.00
2022-12-31T01:25:15.965Z,0.00
2022-12-31T01:26:15.492Z,0.00
2022-12-31T01:27:18.378Z,0.00
2022-12-31T01:28:15.456Z,0.00
2022-12-31T01:29:15.813Z,0.00
2022-12-31T01:30:16.032Z,0.00
2022-12-31T01:31:15.809Z,0.00
2022-12-31T01:32:15.509Z,0.00
2022-12-31T01:33:16.367Z,0.00
2022-12-31T01:34:15.395Z,0.00
2022-12-31T01:35:16.129Z,0.00
2022-12-31T01:36:18.930Z,0.00
2022-12-31T01:37:16.427Z,0.00
2022-12-31T01:38:15.353Z,0.00
2022-12-31T01:39:16.718Z,0.00
2022-12-31T01:40:15.277Z,0.00
2022-12-31T01:41:15.939Z,0.00
2022-12-31T01:42:16.063Z,0.00
2022-12-31T01:43:15.423Z,0.00
2022-12-31T01:44:15.187Z,0.00
2022-12-31T01:45:15.575Z,0.00
2022-12-31T01:46:15.210Z,0.00
2022-12-31T01:47:16.006Z,0.00
2022-12-31T01:48:15.136Z,0.00
2022-12-31T01:49:15.445Z,0.00
2022-12-31T01:50:15.147Z,0.00
2022-12-31T01:51:15.322Z,0.00
2022-12-31T01:52:15.279Z,0.00
2022-12-31T01:53:16.517Z,0.00
2022-12-31T01:54:15.741Z,0.00
2022-12-31T01:55:15.270Z,0.00
2022-12-31T01:56:15.060Z,0.00
2022-12-31T01:57:18.581Z,0.00
2022-12-31T01:58:15.189Z,0.00
2022-12-31T01:59:16.022Z,0.00
2022-12-31T02:00:15.027Z,0.00
2022-12-31T02:01:15.507Z,0.00
2022-12-31T02:02:15.848Z,0.00
2022-12-31T02:03:15.219Z,0.00
2022-12-31T02:04:14.927Z,0.00
2022-12-31T02:05:15.385Z,0.00
2022-12-31T02:06:14.909Z,0.00
2022-12-31T02:07:15.575Z,0.00
2022-12-31T02:08:14.863Z,0.00
2022-12-31T02:09:14.960Z,0.00
2022-12-31T02:10:14.858Z,0.00
2022-12-31T02:11:15.914Z,0.00
2022-12-31T02:12:15.098Z,0.00
2022-12-31T02:13:15.929Z,0.00
2022-12-31T02:14:14.984Z,0.00
2022-12-31T02:15:14.950Z,0.00
2022-12-31T02:16:15.573Z,0.00
2022-12-31T02:17:14.830Z,0.00
2022-12-31T02:18:14.761Z,0.00
2022-12-31T02:19:14.930Z,0.00
2022-12-31T02:20:14.749Z,0.00
2022-12-31T02:21:14.838Z,0.00
2022-12-31T02:22:14.702Z,0.00
2022-12-31T02:23:15.538Z,0.00
2022-12-31T02:24:14.672Z,0.00
2022-12-31T02:25:18.034Z,0.00
2022-12-31T02:26:14.628Z,0.00
2022-12-31T02:27:14.865Z,0.00
2022-12-31T02:28:14.605Z,0.00
2022-12-31T02:29:14.894Z,0.00
2022-12-31T02:30:14.607Z,0.00
2022-12-31T02:31:16.936Z,0.00
2022-12-31T02:32:15.291Z,0.00
2022-12-31T02:33:15.473Z,0.00
2022-12-31T02:34:14.534Z,0.00
2022-12-31T02:35:17.415Z,0.00
2022-12-31T02:36:14.534Z,0.00
2022-12-31T02:37:15.683Z,0.00
2022-12-31T02:38:14.482Z,0.00
2022-12-31T02:39:14.965Z,0.00
2022-12-31T02:40:14.458Z,0.00
2022-12-31T02:41:17.487Z,0.00
2022-12-31T02:42:14.419Z,0.00
2022-12-31T02:43:16.493Z,0.00
2022-12-31T02:44:14.375Z,0.00
2022-12-31T02:45:15.291Z,0.00
2022-12-31T02:46:14.447Z,0.00
2022-12-31T02:47:17.288Z,0.00
2022-12-31T02:48:14.420Z,0.00
2022-12-31T02:49:14.827Z,0.00
2022-12-31T02:50:14.305Z,0.00
2022-12-31T02:51:17.108Z,0.00
2022-12-31T02:52:14.301Z,0.00
2022-12-31T02:53:16.356Z,0.00
2022-12-31T02:54:14.251Z,0.00
2022-12-31T02:55:15.318Z,0.00
2022-12-31T02:56:14.225Z,0.00
2022-12-31T02:57:16.790Z,0.00
2022-12-31T02:58:14.190Z,0.00
2022-12-31T02:59:15.125Z,0.00
2022-12-31T03:00:14.497Z,0.00
2022-12-31T03:01:15.710Z,0.00
2022-12-31T03:02:14.315Z,0.00
2022-12-31T03:03:15.844Z,0.00
2022-12-31T03:04:14.243Z,0.00
2022-12-31T03:05:16.304Z,0.00
2022-12-31T03:06:14.284Z,0.00
2022-12-31T03:07:14.812Z,0.00
2022-12-31T03:08:14.023Z,0.00
2022-12-31T03:09:14.258Z,0.00
2022-12-31T03:10:14.292Z,0.00
2022-12-31T03:11:14.382Z,0.00
2022-12-31T03:12:13.996Z,0.00
2022-12-31T03:13:15.851Z,0.00
2022-12-31T03:14:13.956Z,0.00
2022-12-31T03:15:16.738Z,0.00
2022-12-31T03:16:13.933Z,0.00
2022-12-31T03:17:15.626Z,0.00
2022-12-31T03:18:13.920Z,0.00
2022-12-31T03:19:15.448Z,0.00
2022-12-31T03:20:14.134Z,0.00
2022-12-31T03:21:15.037Z,0.00
2022-12-31T03:22:13.846Z,0.00
2022-12-31T03:23:15.850Z,0.00
2022-12-31T03:24:14.062Z,0.00
2022-12-31T03:25:14.518Z,0.00
2022-12-31T03:26:13.768Z,0.00
2022-12-31T03:27:15.563Z,0.00
2022-12-31T03:28:13.764Z,0.00
2022-12-31T03:29:14.502Z,0.00
2022-12-31T03:30:13.799Z,0.00
2022-12-31T03:31:17.627Z,0.00
2022-12-31T03:32:13.694Z,0.00
2022-12-31T03:33:20.488Z,0.00
2022-12-31T03:34:13.697Z,0.00
2022-12-31T03:35:16.511Z,0.00
2022-12-31T03:36:13.841Z,0.00
2022-12-31T03:37:15.488Z,0.00
2022-12-31T03:38:13.621Z,0.00
2022-12-31T03:39:13.989Z,0.00
2022-12-31T03:40:13.640Z,0.00
2022-12-31T03:41:16.220Z,0.00
2022-12-31T03:42:13.873Z,0.00
2022-12-31T03:43:14.584Z,0.00
2022-12-31T03:44:13.565Z,0.00
2022-12-31T03:45:16.967Z,0.00
2022-12-31T03:46:13.574Z,0.00
2022-12-31T03:47:14.423Z,0.00
2022-12-31T03:48:13.913Z,0.00
2022-12-31T03:49:16.586Z,0.00
2022-12-31T03:50:13.493Z,0.00
2022-12-31T03:51:13.602Z,0.00
2022-12-31T03:52:13.432Z,0.00
2022-12-31T03:53:14.658Z,0.00
2022-12-31T03:54:13.381Z,0.00
2022-12-31T03:55:14.429Z,0.00
2022-12-31T03:56:13.341Z,0.00
2022-12-31T03:57:16.763Z,0.00
2022-12-31T03:58:13.350Z,0.00
2022-12-31T03:59:15.061Z,0.00
2022-12-31T04:00:13.362Z,0.00
2022-12-31T04:01:14.308Z,0.00
2022-12-31T04:02:13.525Z,0.00
2022-12-31T04:03:13.373Z,0.00
2022-12-31T04:04:13.254Z,0.00
2022-12-31T04:05:14.776Z,0.00
2022-12-31T04:06:13.245Z,0.00
2022-12-31T04:07:16.299Z,0.00
2022-12-31T04:08:13.185Z,0.00
2022-12-31T04:09:16.019Z,0.00
2022-12-31T04:10:13.153Z,0.00
2022-12-31T04:11:21.060Z,0.00
2022-12-31T04:12:13.217Z,0.00
2022-12-31T04:13:14.445Z,0.00
2022-12-31T04:14:13.275Z,0.00
2022-12-31T04:15:13.532Z,0.00
2022-12-31T04:16:14.073Z,0.00
2022-12-31T04:17:14.851Z,0.00
2022-12-31T04:18:13.264Z,0.00
2022-12-31T04:19:14.361Z,0.00
2022-12-31T04:20:13.090Z,0.00
2022-12-31T04:21:14.035Z,0.00
2022-12-31T04:22:13.739Z,0.00
2022-12-31T04:23:13.398Z,0.00
2022-12-31T04:24:12.952Z,0.00
2022-12-31T04:25:13.223Z,0.00
2022-12-31T04:26:12.916Z,0.00
2022-12-31T04:27:17.631Z,0.00
2022-12-31T04:28:13.173Z,0.00
2022-12-31T04:29:14.073Z,0.00
2022-12-31T04:30:12.881Z,0.00
2022-12-31T04:31:16.058Z,0.00
2022-12-31T04:32:13.255Z,0.00
2022-12-31T04:33:13.394Z,0.00
2022-12-31T04:34:12.893Z,0.00
2022-12-31T04:35:13.002Z,0.00
2022-12-31T04:36:13.530Z,0.00
2022-12-31T04:37:15.204Z,0.00
2022-12-31T04:38:12.762Z,0.00
2022-12-31T04:39:16.431Z,0.00
2022-12-31T04:40:12.785Z,0.00
2022-12-31T04:41:15.063Z,0.00
2022-12-31T04:42:12.793Z,0.00
2022-12-31T04:43:13.771Z,0.00
2022-12-31T04:44:12.670Z,0.00
2022-12-31T04:45:13.463Z,0.00
2022-12-31T04:46:12.725Z,0.00
2022-12-31T04:47:23.602Z,0.00
2022-12-31T04:48:12.630Z,0.00
2022-12-31T04:49:13.476Z,0.00
2022-12-31T04:50:12.616Z,0.00
2022-12-31T04:51:16.446Z,0.00
2022-12-31T04:52:12.761Z,0.00
2022-12-31T04:53:17.819Z,0.00
2022-12-31T04:54:12.545Z,0.00
2022-12-31T04:55:16.109Z,0.00
2022-12-31T04:56:13.968Z,0.00
2022-12-31T04:57:14.190Z,0.00
2022-12-31T04:58:12.489Z,0.00
2022-12-31T04:59:15.939Z,0.00
2022-12-31T05:00:12.480Z,0.00
2022-12-31T05:01:14.225Z,0.00
2022-12-31T05:02:12.617Z,0.00
2022-12-31T05:03:13.584Z,0.00
2022-12-31T05:04:12.452Z,0.00
2022-12-31T05:05:14.039Z,0.00
2022-12-31T05:06:12.372Z,0.00
2022-12-31T05:07:13.986Z,0.00
2022-12-31T05:08:12.336Z,0.00
2022-12-31T05:09:13.602Z,0.00
2022-12-31T05:10:12.328Z,0.00
2022-12-31T05:11:13.697Z,0.00
2022-12-31T05:12:12.389Z,0.00
2022-12-31T05:13:14.615Z,0.00
2022-12-31T05:14:12.257Z,0.00
2022-12-31T05:15:13.402Z,0.00
2022-12-31T05:16:12.250Z,0.00
2022-12-31T05:17:14.653Z,0.00
2022-12-31T05:18:12.179Z,0.00
2022-12-31T05:19:14.262Z,0.00
2022-12-31T05:20:12.206Z,0.00
2022-12-31T05:21:12.520Z,0.00
2022-12-31T05:22:12.310Z,0.00
2022-12-31T05:23:12.479Z,0.00
2022-12-31T05:24:12.097Z,0.00
2022-12-31T05:25:12.714Z,0.00
2022-12-31T05:26:12.125Z,0.00
2022-12-31T05:27:13.386Z,0.00
2022-12-31T05:28:12.667Z,0.00
2022-12-31T05:29:12.684Z,0.00
2022-12-31T05:30:12.059Z,0.00
2022-12-31T05:31:13.007Z,0.00
2022-12-31T05:32:12.025Z,0.00
2022-12-31T05:33:12.788Z,0.00
2022-12-31T05:34:11.961Z,0.00
2022-12-31T05:35:13.300Z,0.00
2022-12-31T05:36:11.934Z,0.00
2022-12-31T05:37:13.400Z,0.00
2022-12-31T05:38:11.916Z,0.00
2022-12-31T05:39:13.337Z,0.00
2022-12-31T05:40:12.138Z,0.00
2022-12-31T05:41:12.938Z,0.00
2022-12-31T05:42:12.031Z,0.00
2022-12-31T05:43:13.398Z,0.00
2022-12-31T05:44:11.840Z,0.00
2022-12-31T05:45:12.116Z,0.00
2022-12-31T05:46:11.920Z,0.00
2022-12-31T05:47:12.452Z,0.00
2022-12-31T05:48:11.777Z,0.00
2022-12-31T05:49:12.916Z,0.00
2022-12-31T05:50:11.755Z,0.00
2022-12-31T05:51:12.423Z,0.00
2022-12-31T05:52:11.908Z,0.00
2022-12-31T05:53:12.334Z,0.00
2022-12-31T05:54:11.704Z,0.00
2022-12-31T05:55:12.555Z,0.00
2022-12-31T05:56:11.683Z,0.00
2022-12-31T05:57:14.199Z,0.00
2022-12-31T05:58:11.691Z,0.00
2022-12-31T05:59:12.593Z,0.00
2022-12-31T06:00:11.753Z,0.00
2022-12-31T06:01:12.059Z,0.00
2022-12-31T06:02:11.601Z,0.00
2022-12-31T06:03:11.962Z,0.00
2022-12-31T06:04:11.632Z,0.00
2022-12-31T06:05:12.744Z,0.00
2022-12-31T06:06:11.536Z,0.00
2022-12-31T06:07:12.121Z,0.00
2022-12-31T06:08:11.482Z,0.00
2022-12-31T06:09:12.384Z,0.00
2022-12-31T06:10:11.428Z,0.00
2022-12-31T06:11:12.260Z,0.00
2022-12-31T06:12:11.619Z,0.00
2022-12-31T06:13:12.534Z,0.00
2022-12-31T06:14:11.426Z,0.00
2022-12-31T06:15:12.269Z,0.00
2022-12-31T06:16:11.399Z,0.00
2022-12-31T06:17:13.175Z,0.00
2022-12-31T06:18:11.316Z,0.00
2022-12-31T06:19:11.645Z,0.00
2022-12-31T06:20:13.312Z,0.00
2022-12-31T06:21:11.730Z,0.00
2022-12-31T06:22:11.278Z,0.00
2022-12-31T06:23:13.036Z,0.00
2022-12-31T06:24:11.246Z,0.00
2022-12-31T06:25:11.924Z,0.00
2022-12-31T06:26:11.219Z,0.00
2022-12-31T06:27:12.631Z,0.00
2022-12-31T06:28:16.139Z,0.00
2022-12-31T06:29:12.499Z,0.00
2022-12-31T06:30:11.175Z,0.00
2022-12-31T06:31:11.610Z,0.00
2022-12-31T06:32:11.121Z,0.00
2022-12-31T06:33:12.064Z,0.00
2022-12-31T06:34:11.076Z,0.00
2022-12-31T06:35:12.867Z,0.00
2022-12-31T06:36:11.469Z,0.00
2022-12-31T06:37:12.185Z,0.00
2022-12-31T06:38:11.014Z,0.00
2022-12-31T06:39:11.577Z,0.00
2022-12-31T06:40:10.984Z,0.00
2022-12-31T06:41:11.496Z,0.00
2022-12-31T06:42:11.046Z,0.00
2022-12-31T06:43:12.016Z,0.00
2022-12-31T06:44:10.947Z,0.00
2022-12-31T06:45:11.358Z,0.00
2022-12-31T06:46:11.378Z,0.00
2022-12-31T06:47:12.289Z,0.00
2022-12-31T06:48:10.935Z,0.00
2022-12-31T06:49:11.018Z,0.00
2022-12-31T06:50:10.859Z,0.00
2022-12-31T06:51:16.789Z,0.00
2022-12-31T06:52:11.838Z,0.00
2022-12-31T06:53:12.115Z,0.00
2022-12-31T06:54:10.828Z,0.00
2022-12-31T06:55:12.113Z,0.00
2022-12-31T06:56:10.855Z,0.00
2022-12-31T06:57:13.165Z,0.00
2022-12-31T06:58:10.783Z,0.00
2022-12-31T06:59:12.428Z,0.00
2022-12-31T07:00:10.827Z,0.00
2022-12-31T07:01:11.163Z,0.00
2022-12-31T07:02:10.897Z,0.00
2022-12-31T07:03:11.633Z,0.00
2022-12-31T07:04:10.743Z,0.00
2022-12-31T07:05:12.207Z,0.00
2022-12-31T07:06:10.674Z,0.00
2022-12-31T07:07:13.724Z,0.00
2022-12-31T07:08:10.620Z,0.00
2022-12-31T07:09:11.502Z,0.00
2022-12-31T07:10:10.598Z,0.00
2022-12-31T07:11:11.709Z,0.00
2022-12-31T07:12:10.668Z,0.00
2022-12-31T07:13:10.924Z,0.00
2022-12-31T07:14:10.529Z,0.00
2022-12-31T07:15:11.402Z,0.00
2022-12-31T07:16:10.613Z,0.00
2022-12-31T07:17:12.363Z,0.00
2022-12-31T07:18:10.561Z,0.00
2022-12-31T07:19:11.561Z,0.00
2022-12-31T07:20:10.455Z,0.00
2022-12-31T07:21:11.017Z,0.00
2022-12-31T07:22:10.450Z,0.00
2022-12-31T07:23:11.333Z,0.00
2022-12-31T07:24:10.442Z,0.00
2022-12-31T07:25:12.389Z,0.00
2022-12-31T07:26:10.358Z,0.00
2022-12-31T07:27:12.783Z,0.00
2022-12-31T07:28:10.385Z,0.00
2022-12-31T07:29:10.903Z,0.00
2022-12-31T07:30:10.413Z,4.00
2022-12-31T07:31:12.548Z,4.00
2022-12-31T07:32:10.327Z,4.00
2022-12-31T07:33:11.764Z,4.00
2022-12-31T07:34:10.292Z,0.00
2022-12-31T07:35:12.818Z,0.00
2022-12-31T07:36:10.534Z,0.00
2022-12-31T07:37:12.984Z,0.00
2022-12-31T07:38:10.261Z,4.00
2022-12-31T07:39:12.496Z,4.00
2022-12-31T07:40:10.209Z,4.00
2022-12-31T07:41:11.091Z,4.00
2022-12-31T07:42:10.410Z,4.00
2022-12-31T07:43:11.346Z,4.00
2022-12-31T07:44:10.759Z,4.00
2022-12-31T07:45:10.933Z,4.00
2022-12-31T07:46:10.165Z,8.00
2022-12-31T07:47:12.640Z,12.00
2022-12-31T07:48:10.104Z,8.00
2022-12-31T07:49:10.451Z,8.00
2022-12-31T07:50:10.033Z,8.00
2022-12-31T07:51:10.681Z,8.00
2022-12-31T07:52:10.005Z,8.00
2022-12-31T07:53:11.417Z,8.00
2022-12-31T07:54:13.903Z,8.00
2022-12-31T07:55:12.298Z,8.00
2022-12-31T07:56:10.084Z,4.00
2022-12-31T07:57:12.452Z,8.00
2022-12-31T07:58:10.150Z,8.00
2022-12-31T07:59:10.279Z,12.00
2022-12-31T08:00:10.731Z,12.00
2022-12-31T08:01:10.267Z,8.00
2022-12-31T08:02:10.050Z,8.00
2022-12-31T08:03:11.541Z,4.00
2022-12-31T08:04:09.862Z,12.00
2022-12-31T08:05:11.881Z,12.00
2022-12-31T08:06:09.843Z,16.00
2022-12-31T08:07:12.560Z,16.00
2022-12-31T08:08:09.996Z,16.00
2022-12-31T08:09:10.020Z,20.00
2022-12-31T08:10:15.670Z,16.00
2022-12-31T08:11:11.462Z,16.00
2022-12-31T08:12:09.786Z,20.00
2022-12-31T08:13:11.239Z,20.00
2022-12-31T08:14:09.722Z,16.00
2022-12-31T08:15:10.253Z,16.00
2022-12-31T08:16:09.691Z,16.00
2022-12-31T08:17:11.203Z,12.00
2022-12-31T08:18:09.657Z,8.00
2022-12-31T08:19:11.197Z,12.00
2022-12-31T08:20:09.599Z,16.00
2022-12-31T08:21:10.839Z,24.00
2022-12-31T08:22:09.581Z,20.00
2022-12-31T08:23:10.504Z,24.00
2022-12-31T08:24:10.489Z,16.00
2022-12-31T08:25:10.762Z,20.00
2022-12-31T08:26:09.510Z,28.00
2022-12-31T08:27:09.724Z,28.00
2022-12-31T08:28:09.494Z,32.00
2022-12-31T08:29:10.647Z,36.00
2022-12-31T08:30:09.606Z,32.00
2022-12-31T08:31:10.284Z,36.00
2022-12-31T08:32:09.512Z,36.00
2022-12-31T08:33:11.224Z,40.00
2022-12-31T08:34:09.388Z,44.00
2022-12-31T08:35:10.115Z,44.00
2022-12-31T08:36:09.504Z,44.00
2022-12-31T08:37:09.812Z,44.00
2022-12-31T08:38:09.611Z,44.00
2022-12-31T08:39:10.335Z,48.00
2022-12-31T08:40:09.308Z,44.00
2022-12-31T08:41:12.313Z,52.00
2022-12-31T08:42:09.340Z,52.00
2022-12-31T08:43:12.134Z,52.00
2022-12-31T08:44:09.259Z,52.00
2022-12-31T08:45:10.567Z,48.00
2022-12-31T08:46:09.486Z,52.00
2022-12-31T08:47:12.219Z,48.00
2022-12-31T08:48:09.269Z,56.00
2022-12-31T08:49:12.463Z,64.00
2022-12-31T08:50:09.250Z,64.00
2022-12-31T08:51:12.302Z,68.00
2022-12-31T08:52:09.350Z,72.00
2022-12-31T08:53:10.643Z,68.00
2022-12-31T08:54:09.118Z,64.00
2022-12-31T08:55:10.624Z,72.00
2022-12-31T08:56:09.224Z,72.00
2022-12-31T08:57:13.419Z,76.00
2022-12-31T08:58:09.155Z,72.00
2022-12-31T08:59:11.068Z,80.00
2022-12-31T09:00:09.071Z,80.00
2022-12-31T09:01:11.640Z,84.00
2022-12-31T09:02:09.098Z,84.00
2022-12-31T09:03:11.647Z,84.00
2022-12-31T09:04:09.050Z,80.00
2022-12-31T09:05:09.235Z,84.00
2022-12-31T09:06:09.038Z,88.00
2022-12-31T09:07:11.166Z,88.00
2022-12-31T09:08:08.915Z,88.00
2022-12-31T09:09:10.050Z,88.00
2022-12-31T09:10:09.021Z,88.00
2022-12-31T09:11:17.696Z,88.00
2022-12-31T09:12:09.953Z,88.00
2022-12-31T09:13:11.670Z,88.00
2022-12-31T09:14:08.927Z,88.00
2022-12-31T09:15:11.235Z,92.00
2022-12-31T09:16:09.026Z,92.00
2022-12-31T09:17:10.980Z,92.00
2022-12-31T09:18:08.838Z,92.00
2022-12-31T09:19:10.023Z,92.00
2022-12-31T09:20:08.832Z,92.00
2022-12-31T09:21:11.491Z,92.00
2022-12-31T09:22:08.757Z,92.00
2022-12-31T09:23:10.510Z,92.00
2022-12-31T09:24:09.657Z,92.00
2022-12-31T09:25:10.065Z,92.00
2022-12-31T09:26:08.670Z,92.00
2022-12-31T09:27:09.883Z,92.00
2022-12-31T09:28:08.730Z,92.00
2022-12-31T09:29:11.556Z,92.00
2022-12-31T09:30:08.639Z,96.00
2022-12-31T09:31:09.775Z,96.00
2022-12-31T09:32:08.600Z,96.00
2022-12-31T09:33:09.232Z,92.00
2022-12-31T09:34:08.580Z,92.00
2022-12-31T09:35:09.796Z,92.00
2022-12-31T09:36:09.014Z,92.00
2022-12-31T09:37:11.080Z,92.00
2022-12-31T09:38:11.640Z,100.00
2022-12-31T09:39:10.080Z,96.00
2022-12-31T09:40:08.653Z,100.00
2022-12-31T09:41:10.122Z,96.00
2022-12-31T09:42:08.437Z,88.00
2022-12-31T09:43:11.043Z,88.00
2022-12-31T09:44:08.462Z,96.00
2022-12-31T09:45:09.569Z,100.00
2022-12-31T09:46:08.471Z,96.00
2022-12-31T09:47:09.308Z,100.00
2022-12-31T09:48:08.394Z,100.00
2022-12-31T09:49:08.638Z,100.00
2022-12-31T09:50:08.364Z,100.00
2022-12-31T09:51:09.932Z,100.00
2022-12-31T09:52:08.389Z,104.00
2022-12-31T09:53:09.125Z,108.00
2022-12-31T09:54:08.325Z,96.00
2022-12-31T09:55:08.561Z,96.00
2022-12-31T09:56:08.278Z,88.00
2022-12-31T09:57:09.684Z,84.00
2022-12-31T09:58:08.228Z,88.00
2022-12-31T09:59:09.433Z,88.00
2022-12-31T10:00:08.202Z,80.00
2022-12-31T10:01:09.178Z,76.00
2022-12-31T10:02:08.384Z,80.00
2022-12-31T10:03:08.677Z,80.00
2022-12-31T10:04:08.188Z,76.00
2022-12-31T10:05:08.649Z,88.00
2022-12-31T10:06:08.110Z,84.00
2022-12-31T10:07:09.945Z,96.00
2022-12-31T10:08:08.126Z,96.00
2022-12-31T10:09:08.677Z,84.00
2022-12-31T10:10:08.147Z,92.00
2022-12-31T10:11:08.598Z,88.00
2022-12-31T10:12:08.030Z,76.00
2022-12-31T10:13:08.245Z,84.00
2022-12-31T10:14:08.053Z,80.00
2022-12-31T10:15:08.093Z,80.00
2022-12-31T10:16:08.028Z,80.00
2022-12-31T10:17:08.347Z,88.00
2022-12-31T10:18:08.072Z,92.00
2022-12-31T10:19:08.019Z,88.00
2022-12-31T10:20:07.905Z,92.00
2022-12-31T10:21:07.983Z,88.00
2022-12-31T10:22:07.936Z,84.00
2022-12-31T10:23:08.030Z,80.00
2022-12-31T10:24:07.905Z,80.00
2022-12-31T10:25:07.922Z,76.00
2022-12-31T10:26:07.951Z,80.00
2022-12-31T10:27:07.833Z,84.00
2022-12-31T10:28:07.921Z,84.00
2022-12-31T10:29:07.889Z,88.00
2022-12-31T10:30:07.819Z,80.00
2022-12-31T10:31:07.811Z,76.00
2022-12-31T10:32:07.850Z,72.00
2022-12-31T10:33:07.783Z,84.00
2022-12-31T10:34:07.750Z,84.00
2022-12-31T10:35:07.865Z,84.00
2022-12-31T10:36:07.769Z,80.00
2022-12-31T10:37:07.877Z,92.00
2022-12-31T10:38:07.703Z,80.00
2022-12-31T10:39:13.528Z,88.00
2022-12-31T10:40:09.471Z,84.00
2022-12-31T10:41:07.746Z,76.00
2022-12-31T10:42:07.746Z,76.00
2022-12-31T10:43:07.713Z,84.00
2022-12-31T10:44:07.762Z,88.00
2022-12-31T10:45:07.624Z,88.00
2022-12-31T10:46:08.012Z,80.00
2022-12-31T10:47:07.750Z,88.00
2022-12-31T10:48:07.609Z,92.00
2022-12-31T10:49:07.544Z,92.00
2022-12-31T10:50:07.576Z,92.00
2022-12-31T10:51:07.495Z,88.00
2022-12-31T10:52:08.242Z,84.00
2022-12-31T10:53:07.504Z,76.00
2022-12-31T10:54:08.223Z,84.00
2022-12-31T10:55:07.497Z,80.00
2022-12-31T10:56:07.420Z,80.00
2022-12-31T10:57:09.231Z,80.00
2022-12-31T10:58:07.439Z,84.00
2022-12-31T10:59:08.781Z,80.00
2022-12-31T11:00:08.382Z,84.00
2022-12-31T11:01:07.454Z,88.00
2022-12-31T11:02:07.461Z,92.00
2022-12-31T11:03:07.383Z,92.00
2022-12-31T11:04:07.371Z,96.00
2022-12-31T11:05:07.318Z,100.00
2022-12-31T11:06:07.475Z,100.00
2022-12-31T11:07:07.289Z,92.00
2022-12-31T11:08:07.280Z,92.00
2022-12-31T11:09:07.234Z,92.00
2022-12-31T11:10:07.301Z,92.00
2022-12-31T11:11:07.208Z,92.00
2022-12-31T11:12:07.234Z,100.00
2022-12-31T11:13:07.193Z,96.00
2022-12-31T11:14:07.243Z,100.00
2022-12-31T11:15:07.189Z,100.00
2022-12-31T11:16:07.248Z,96.00
2022-12-31T11:17:07.128Z,108.00
2022-12-31T11:18:07.134Z,112.00
2022-12-31T11:19:07.189Z,108.00
2022-12-31T11:20:07.888Z,104.00
2022-12-31T11:21:07.063Z,116.00
2022-12-31T11:22:07.161Z,120.00
2022-12-31T11:23:07.090Z,116.00
2022-12-31T11:24:07.093Z,100.00
2022-12-31T11:25:07.025Z,88.00
2022-12-31T11:26:07.028Z,84.00
2022-12-31T11:27:06.993Z,84.00
2022-12-31T11:28:07.138Z,88.00
2022-12-31T11:29:07.119Z,84.00
2022-12-31T11:30:07.727Z,84.00
2022-12-31T11:31:06.973Z,36.00
2022-12-31T11:32:06.963Z,84.00
2022-12-31T11:33:07.673Z,76.00
2022-12-31T11:34:07.021Z,72.00
2022-12-31T11:35:06.873Z,76.00
2022-12-31T11:36:06.890Z,68.00
2022-12-31T11:37:07.712Z,60.00
2022-12-31T11:38:07.023Z,60.00
2022-12-31T11:39:06.843Z,56.00
2022-12-31T11:40:06.889Z,56.00
2022-12-31T11:41:06.888Z,60.00
2022-12-31T11:42:06.829Z,60.00
2022-12-31T11:43:06.819Z,60.00
2022-12-31T11:44:07.763Z,56.00
2022-12-31T11:45:06.806Z,56.00
2022-12-31T11:46:06.862Z,32.00
2022-12-31T11:47:06.732Z,48.00
2022-12-31T11:49:07.674Z,52.00
2022-12-31T11:50:06.733Z,52.00
2022-12-31T11:51:06.664Z,44.00
2022-12-31T11:52:06.958Z,44.00
2022-12-31T11:53:06.661Z,48.00
2022-12-31T11:54:06.676Z,52.00
2022-12-31T11:55:06.626Z,56.00
2022-12-31T11:56:06.629Z,52.00
2022-12-31T11:57:06.600Z,52.00
2022-12-31T11:58:06.632Z,52.00
2022-12-31T11:59:10.355Z,56.00
2022-12-31T12:00:07.614Z,56.00
2022-12-31T12:01:06.549Z,52.00
2022-12-31T12:02:06.586Z,52.00
2022-12-31T12:03:06.529Z,48.00
2022-12-31T12:04:06.591Z,48.00
2022-12-31T12:05:10.749Z,48.00
2022-12-31T12:06:07.478Z,36.00
2022-12-31T12:07:06.468Z,48.00
2022-12-31T12:08:06.875Z,48.00
2022-12-31T12:09:07.169Z,48.00
2022-12-31T12:10:06.476Z,48.00
2022-12-31T12:11:06.439Z,44.00
2022-12-31T12:12:06.596Z,44.00
2022-12-31T12:13:06.391Z,44.00
2022-12-31T12:14:06.356Z,40.00
2022-12-31T12:15:06.326Z,44.00
2022-12-31T12:16:06.490Z,44.00
2022-12-31T12:17:06.319Z,40.00
2022-12-31T12:18:06.321Z,40.00
2022-12-31T12:19:06.306Z,36.00
2022-12-31T12:20:07.017Z,36.00
2022-12-31T12:21:06.256Z,32.00
2022-12-31T12:22:06.309Z,36.00
2022-12-31T12:23:06.248Z,32.00
2022-12-31T12:24:06.281Z,32.00
2022-12-31T12:25:06.200Z,32.00
2022-12-31T12:26:06.241Z,28.00
2022-12-31T12:27:06.187Z,28.00
2022-12-31T12:28:06.560Z,28.00
2022-12-31T12:29:06.111Z,28.00
2022-12-31T12:30:06.161Z,24.00
2022-12-31T12:31:06.147Z,24.00
2022-12-31T12:32:06.108Z,28.00
2022-12-31T12:33:06.149Z,24.00
2022-12-31T12:34:06.154Z,24.00
2022-12-31T12:35:06.069Z,20.00
2022-12-31T12:36:06.041Z,20.00
2022-12-31T12:37:06.076Z,20.00
2022-12-31T12:38:06.768Z,20.00
2022-12-31T12:39:06.010Z,20.00
2022-12-31T12:40:06.084Z,20.00
2022-12-31T12:41:06.718Z,24.00
2022-12-31T12:42:06.034Z,20.00
2022-12-31T12:43:05.914Z,24.00
2022-12-31T12:44:05.924Z,24.00
2022-12-31T12:45:05.968Z,20.00
2022-12-31T12:46:06.001Z,20.00
2022-12-31T12:47:05.976Z,20.00
2022-12-31T12:48:05.942Z,20.00
2022-12-31T12:49:05.946Z,20.00
2022-12-31T12:50:05.863Z,20.00
2022-12-31T12:51:05.805Z,16.00
2022-12-31T12:52:06.172Z,20.00
2022-12-31T12:53:05.763Z,16.00
2022-12-31T12:54:05.837Z,16.00
2022-12-31T12:55:05.753Z,20.00
2022-12-31T12:56:05.778Z,16.00
2022-12-31T12:57:05.828Z,16.00
2022-12-31T12:58:06.009Z,12.00
2022-12-31T12:59:05.718Z,16.00
2022-12-31T13:00:05.778Z,8.00
2022-12-31T13:01:05.750Z,16.00
2022-12-31T13:02:05.830Z,16.00
2022-12-31T13:03:06.486Z,16.00
2022-12-31T13:04:33.587Z,12.00
2022-12-31T13:05:06.637Z,12.00
2022-12-31T13:06:06.365Z,12.00
2022-12-31T13:07:05.619Z,12.00
2022-12-31T13:08:05.645Z,16.00